Strona główna
METAR-TAF:

METAR-TAF

Lotnisko :

Port lotniczy Katowice-Pyrzowice

Katowice, Polska

Szerokość geograficzna: 50-28-27N, Długość geograficzna: 019-04-48E, wysokość: 284 m

Aktualna obserwacja pogody

Raport powstał 36 minut temu, godzina 06:00 UTC
Wiatr 3 kt od zachodnio-południowy zachód
Temperatura 0°C
Wilgotność 80%
Ciśnienie 1025 hPa
Widzialność: 8000 m

METAR: EPKT 170600Z 24003KT 8000 NSC M00/M03 Q1025

czas: 07:36 (06:36 UTC)

Prognoza

Raport powstał 1 godzina i 6 minut temu, godzina 05:30 UTC
Prognoza ważna od 17 godzina 06 UTC do 18 godzina 06 UTC
Wiatr 6 kt od południowy zachód
Widzialność 10 km lub więcej
Brak chmur poniżej 1500 m i brak chmur cumulonimbus
Stopniowe zmiany
od 17 godzina 22 UTC do 18 godzina 01 UTC
Widzialność: 4000 m
zamglenie
Prawdopodobieństwo 30% :
Przejściowo
od 18 godzina 02 UTC do 18 godzina 06 UTC
Widzialność: 0600 m
mgła

TAF: EPKT 170530Z 1706/1806 22006KT CAVOK BECMG 1722/1801 4000 BR PROB30 TEMPO 1802/1806 0600 FG

Obserwacja i prognoza pogody dla ponad 4000 lotnisk (raport METAR i TAF).

Dostępne stacje oznaczono żółtymi i czerwonymi punktami na mapie.

Najedź kursorem aby zobaczyć nazwę stacji.

Kliknij aby zobaczyć obserwacje i prognozy pogody.

Aby zmienić mapę: kliknij na zielony przycisk z czarnym krzyżykiem, aby powiększyć; na zielony przycisk z myślnikiem, aby pomniejszyć; na zielone strzałki, aby przejść do map sąsiednich.


METAR-TAF: